Portada
METAR-TAF:

METAR-TAF

Aeropuertos :

Aeropuerto de Santander

Santander, España

latitud: 43-26N, longitud: 003-49W, altitud: 6 m

Observación

El informe se hizo hace 14 minutos, a las 07:30 UTC
Viento 2 kt con dirección variable
Temperatura 18°C
Humedad 88%
Presión 1017 hPa
Visibilidad 10 km o más
Escasas nubes a una altura de 3500 ft

METAR: LEXJ 140730Z VRB02KT 9999 FEW035 18/16 Q1017

Hora: 09:44 (07:44 UTC)

Pronóstico

El informe se hizo hace 5 horas y 44 minutos, a las 02:00 UTC
Pronóstico válido del 14 a las 03 UTC al 15 a las 03 UTC
Viento 3 kt del suroeste
Visibilidad 10 km o más
Nubes dispersas a una altura de 2500 ft
Nubes dispersas a una altura de 4000 ft
Temporalmente
del 14 a las 10 UTC al 14 a las 18 UTC
Viento 10 kt del noreste

TAF: LEXJ 140200Z 1403/1503 23003KT 9999 SCT025 SCT040 TX24/1413Z TN15/1403Z TEMPO 1410/1418 04010KT

Observaciones y pronósticos meteorológicos de más de 4000 aeropuertos (mensajes METAR y TAF).

Los puntos amarillos y rojos representan las estaciones disponibles.

Ponga el ratón en el punto deseado para ver el nombre de la estación.

Haga clic para ver las observaciones y los pronósticos meteorológicos.

Para cambiar el mapa : haga clic en los botones verdes con una cruz de color negro para hacer un zoom, en el botón verde con un guión para alejar o en las flechas verdes para mapas adyacentes.


METAR-TAF: